createdAt,value
2018-04-02T00:00:52.013Z,94.79
2018-04-02T00:01:51.995Z,94.89
2018-04-02T00:02:51.970Z,94.70
2018-04-02T00:03:51.953Z,94.89
2018-04-02T00:04:51.926Z,94.70
2018-04-02T00:05:51.905Z,94.23
2018-04-02T00:06:51.886Z,94.32
2018-04-02T00:07:51.860Z,94.60
2018-04-02T00:08:51.840Z,94.13
2018-04-02T00:09:51.813Z,94.13
2018-04-02T00:10:51.790Z,94.27
2018-04-02T00:11:51.770Z,94.37
2018-04-02T00:12:51.750Z,94.13
2018-04-02T00:13:51.731Z,93.84
2018-04-02T00:14:51.704Z,93.80
2018-04-02T00:15:51.683Z,94.46
2018-04-02T00:16:51.660Z,94.27
2018-04-02T00:17:51.643Z,94.37
2018-04-02T00:18:51.622Z,94.08
2018-04-02T00:19:51.596Z,94.46
2018-04-02T00:20:51.573Z,94.46
2018-04-02T00:21:51.552Z,94.56
2018-04-02T00:22:51.529Z,94.74
2018-04-02T00:23:51.506Z,95.31
2018-04-02T00:24:51.485Z,94.93
2018-04-02T00:25:51.461Z,94.93
2018-04-02T00:26:51.441Z,94.74
2018-04-02T00:27:51.417Z,94.74
2018-04-02T00:28:51.394Z,95.03
2018-04-02T00:29:51.374Z,94.74
2018-04-02T00:30:51.349Z,95.59
2018-04-02T00:31:51.328Z,95.21
2018-04-02T00:32:51.306Z,95.21
2018-04-02T00:33:51.287Z,95.59
2018-04-02T00:34:51.310Z,94.65
2018-04-02T00:35:51.239Z,95.59
2018-04-02T00:36:51.220Z,94.84
2018-04-02T00:37:51.197Z,95.40
2018-04-02T00:38:51.172Z,95.59
2018-04-02T00:39:51.163Z,95.03
2018-04-02T00:40:51.128Z,95.40
2018-04-02T00:41:51.104Z,94.74
2018-04-02T00:42:51.091Z,95.50
2018-04-02T00:43:51.062Z,95.40
2018-04-02T00:44:51.044Z,95.12
2018-04-02T00:45:51.019Z,95.12
2018-04-02T00:46:50.993Z,95.40
2018-04-02T00:47:50.975Z,95.31
2018-04-02T00:48:50.973Z,95.78
2018-04-02T00:49:50.925Z,95.59
2018-04-02T00:50:50.903Z,96.07
2018-04-02T00:51:50.878Z,95.78
2018-04-02T00:52:50.863Z,95.88
2018-04-02T00:53:50.839Z,95.97
2018-04-02T00:54:50.812Z,96.16
2018-04-02T00:55:50.792Z,95.97
2018-04-02T00:56:50.771Z,96.54
2018-04-02T00:57:50.753Z,96.45
2018-04-02T00:58:50.729Z,96.07
2018-04-02T00:59:50.704Z,96.35
2018-04-02T01:00:50.685Z,96.54
2018-04-02T01:01:50.658Z,96.64
2018-04-02T01:02:50.635Z,96.26
2018-04-02T01:03:50.615Z,96.83
2018-04-02T01:04:50.593Z,96.26
2018-04-02T01:05:50.575Z,96.92
2018-04-02T01:06:50.551Z,96.45
2018-04-02T01:07:50.522Z,96.83
2018-04-02T01:08:50.503Z,96.64
2018-04-02T01:09:50.482Z,96.83
2018-04-02T01:10:50.458Z,96.64
2018-04-02T01:11:50.434Z,96.97
2018-04-02T01:12:50.411Z,96.45
2018-04-02T01:13:50.393Z,96.83
2018-04-02T01:14:50.371Z,96.69
2018-04-02T01:15:50.343Z,96.83
2018-04-02T01:16:50.373Z,96.64
2018-04-02T01:17:50.304Z,96.88
2018-04-02T01:18:50.277Z,96.64
2018-04-02T01:19:50.256Z,96.54
2018-04-02T01:20:50.281Z,97.02
2018-04-02T01:21:50.213Z,96.35
2018-04-02T01:22:50.288Z,96.07
2018-04-02T01:23:50.165Z,96.50
2018-04-02T01:24:50.243Z,96.69
2018-04-02T01:25:50.137Z,96.59
2018-04-02T01:26:50.198Z,96.97
2018-04-02T01:27:50.076Z,96.50
2018-04-02T01:28:50.160Z,96.97
2018-04-02T01:29:50.033Z,96.88
2018-04-02T01:30:50.159Z,96.59
2018-04-02T01:31:49.997Z,96.50
2018-04-02T01:32:49.975Z,96.97
2018-04-02T01:33:49.944Z,97.16
2018-04-02T01:34:50.065Z,97.16
2018-04-02T01:35:49.897Z,96.69
2018-04-02T01:36:49.880Z,96.59
2018-04-02T01:37:49.853Z,96.78
2018-04-02T01:38:49.930Z,96.40
2018-04-02T01:39:49.812Z,96.40
2018-04-02T01:40:49.932Z,97.16
2018-04-02T01:41:49.761Z,96.78
2018-04-02T01:42:49.854Z,95.93
2018-04-02T01:43:49.712Z,97.16
2018-04-02T01:44:49.865Z,95.93
2018-04-02T01:45:49.677Z,97.16
2018-04-02T01:46:49.652Z,96.02
2018-04-02T01:47:49.628Z,96.40
2018-04-02T01:48:49.611Z,95.93
2018-04-02T01:49:49.579Z,96.31
2018-04-02T01:50:49.572Z,96.21
2018-04-02T01:51:49.534Z,96.59
2018-04-02T01:52:49.514Z,96.40
2018-04-02T01:53:49.494Z,96.31
2018-04-02T01:54:49.469Z,96.31
2018-04-02T01:55:49.547Z,96.40
2018-04-02T01:56:49.423Z,96.12
2018-04-02T01:57:49.403Z,96.59
2018-04-02T01:58:49.380Z,96.40
2018-04-02T01:59:49.356Z,96.50
2018-04-02T02:00:49.334Z,96.12
2018-04-02T02:01:49.317Z,96.02
2018-04-02T02:02:49.295Z,96.02
2018-04-02T02:03:49.267Z,95.83
2018-04-02T02:04:49.243Z,95.64
2018-04-02T02:05:49.223Z,95.45
2018-04-02T02:06:49.199Z,95.26
2018-04-02T02:07:49.175Z,95.74
2018-04-02T02:08:49.155Z,95.74
2018-04-02T02:09:49.134Z,95.83
2018-04-02T02:10:49.110Z,95.45
2018-04-02T02:11:49.086Z,95.36
2018-04-02T02:12:49.063Z,95.45
2018-04-02T02:13:49.040Z,95.36
2018-04-02T02:14:49.016Z,95.17
2018-04-02T02:15:48.995Z,95.26
2018-04-02T02:16:48.972Z,95.36
2018-04-02T02:17:48.955Z,95.26
2018-04-02T02:18:48.931Z,95.64
2018-04-02T02:19:48.906Z,95.55
2018-04-02T02:20:48.880Z,94.70
2018-04-02T02:21:48.864Z,95.64
2018-04-02T02:22:48.838Z,95.64
2018-04-02T02:23:48.818Z,95.26
2018-04-02T02:24:48.794Z,95.07
2018-04-02T02:25:48.770Z,95.55
2018-04-02T02:26:48.747Z,95.36
2018-04-02T02:27:48.729Z,95.26
2018-04-02T02:28:48.704Z,95.45
2018-04-02T02:29:48.684Z,95.36
2018-04-02T02:30:48.662Z,95.36
2018-04-02T02:31:48.641Z,95.55
2018-04-02T02:32:48.613Z,95.26
2018-04-02T02:33:48.592Z,95.26
2018-04-02T02:34:48.573Z,95.36
2018-04-02T02:35:48.545Z,95.17
2018-04-02T02:36:48.535Z,95.45
2018-04-02T02:37:48.503Z,95.45
2018-04-02T02:38:48.478Z,95.55
2018-04-02T02:39:48.463Z,95.26
2018-04-02T02:40:48.434Z,95.36
2018-04-02T02:41:48.412Z,95.26
2018-04-02T02:42:48.389Z,95.36
2018-04-02T02:43:48.373Z,95.45
2018-04-02T02:44:48.344Z,95.17
2018-04-02T02:45:48.326Z,95.64
2018-04-02T02:46:48.295Z,95.07
2018-04-02T02:47:48.324Z,95.07
2018-04-02T02:48:48.255Z,95.17
2018-04-02T02:49:48.297Z,95.36
2018-04-02T02:50:48.208Z,95.36
2018-04-02T02:51:48.188Z,94.98
2018-04-02T02:52:48.159Z,95.17
2018-04-02T02:53:48.191Z,95.07
2018-04-02T02:54:48.114Z,94.98
2018-04-02T02:55:48.096Z,94.98
2018-04-02T02:56:48.093Z,95.45
2018-04-02T02:57:48.054Z,95.07
2018-04-02T02:58:48.029Z,95.74
2018-04-02T02:59:48.058Z,95.64
2018-04-02T03:00:47.978Z,96.02
2018-04-02T03:01:48.029Z,95.93
2018-04-02T03:02:47.933Z,95.93
2018-04-02T03:03:48.067Z,96.02
2018-04-02T03:04:47.889Z,95.83
2018-04-02T03:05:47.866Z,96.12
2018-04-02T03:06:47.845Z,96.59
2018-04-02T03:07:47.822Z,96.40
2018-04-02T03:08:47.800Z,96.40
2018-04-02T03:09:47.783Z,96.50
2018-04-02T03:10:47.755Z,96.31
2018-04-02T03:11:47.883Z,96.59
2018-04-02T03:12:47.710Z,96.50
2018-04-02T03:13:47.739Z,96.40
2018-04-02T03:14:47.661Z,96.50
2018-04-02T03:15:47.711Z,96.59
2018-04-02T03:16:47.617Z,96.21
2018-04-02T03:17:47.704Z,95.93
2018-04-02T03:18:47.571Z,96.40
2018-04-02T03:19:47.550Z,96.21
2018-04-02T03:20:47.527Z,95.93
2018-04-02T03:21:47.503Z,95.93
2018-04-02T03:22:47.479Z,96.21
2018-04-02T03:23:47.537Z,96.31
2018-04-02T03:24:47.439Z,96.21
2018-04-02T03:25:47.422Z,96.50
2018-04-02T03:26:47.395Z,95.93
2018-04-02T03:27:47.369Z,95.93
2018-04-02T03:28:47.342Z,96.40
2018-04-02T03:29:47.416Z,96.40
2018-04-02T03:30:47.308Z,96.31
2018-04-02T03:31:47.279Z,96.21
2018-04-02T03:32:47.256Z,96.21
2018-04-02T03:33:47.293Z,96.31
2018-04-02T03:34:47.207Z,96.97
2018-04-02T03:35:47.183Z,96.78
2018-04-02T03:36:47.164Z,97.16
2018-04-02T03:37:47.140Z,95.93
2018-04-02T03:38:47.114Z,96.40
2018-04-02T03:39:47.096Z,96.21
2018-04-02T03:40:47.073Z,96.21
2018-04-02T03:41:47.048Z,96.12
2018-04-02T03:42:47.026Z,95.93
2018-04-02T03:43:47.004Z,96.59
2018-04-02T03:44:46.983Z,96.50
2018-04-02T03:45:46.963Z,96.40
2018-04-02T03:46:46.936Z,96.40
2018-04-02T03:47:46.914Z,96.35
2018-04-02T03:48:46.896Z,95.83
2018-04-02T03:49:46.870Z,96.97
2018-04-02T03:50:46.843Z,96.07
2018-04-02T03:51:46.821Z,96.78
2018-04-02T03:52:46.796Z,96.69
2018-04-02T03:53:46.781Z,96.54
2018-04-02T03:54:46.750Z,96.54
2018-04-02T03:55:46.741Z,96.69
2018-04-02T03:56:46.711Z,96.35
2018-04-02T03:57:46.685Z,96.83
2018-04-02T03:58:46.666Z,96.64
2018-04-02T03:59:46.640Z,96.54
2018-04-02T04:00:46.615Z,96.92
2018-04-02T04:01:46.596Z,96.73
2018-04-02T04:02:46.574Z,96.73
2018-04-02T04:03:46.550Z,96.73
2018-04-02T04:04:46.528Z,96.73
2018-04-02T04:05:46.504Z,97.11
2018-04-02T04:06:46.481Z,96.92
2018-04-02T04:07:46.463Z,97.30
2018-04-02T04:08:46.434Z,97.11
2018-04-02T04:09:46.561Z,97.39
2018-04-02T04:10:46.392Z,97.49
2018-04-02T04:11:46.370Z,97.58
2018-04-02T04:12:46.346Z,97.11
2018-04-02T04:13:46.325Z,97.11
2018-04-02T04:14:46.299Z,97.11
2018-04-02T04:15:46.277Z,97.30
2018-04-02T04:16:46.251Z,97.30
2018-04-02T04:17:46.233Z,98.05
2018-04-02T04:18:46.210Z,97.58
2018-04-02T04:19:46.181Z,97.49
2018-04-02T04:20:46.159Z,97.86
2018-04-02T04:21:46.143Z,97.77
2018-04-02T04:22:46.165Z,97.39
2018-04-02T04:23:46.092Z,97.49
2018-04-02T04:24:46.120Z,97.77
2018-04-02T04:25:46.049Z,97.58
2018-04-02T04:26:46.023Z,97.39
2018-04-02T04:27:46.003Z,97.58
2018-04-02T04:28:45.980Z,98.14
2018-04-02T04:29:45.957Z,98.05
2018-04-02T04:30:45.990Z,98.14
2018-04-02T04:31:45.913Z,98.33
2018-04-02T04:32:45.893Z,98.71
2018-04-02T04:33:45.871Z,98.14
2018-04-02T04:34:45.844Z,98.24
2018-04-02T04:35:45.821Z,98.14
2018-04-02T04:36:45.797Z,98.24
2018-04-02T04:37:45.773Z,98.62
2018-04-02T04:38:45.750Z,98.62
2018-04-02T04:39:45.727Z,98.24
2018-04-02T04:40:45.701Z,98.14
2018-04-02T04:41:45.683Z,97.77
2018-04-02T04:42:45.759Z,97.86
2018-04-02T04:43:45.638Z,97.49
2018-04-02T04:44:45.662Z,97.63
2018-04-02T04:45:45.591Z,97.72
2018-04-02T04:46:45.635Z,97.86
2018-04-02T04:47:45.545Z,97.86
2018-04-02T04:48:45.623Z,97.77
2018-04-02T04:49:45.503Z,97.91
2018-04-02T04:50:45.481Z,97.82
2018-04-02T04:51:45.457Z,97.34
2018-04-02T04:52:45.436Z,97.77
2018-04-02T04:53:45.413Z,97.67
2018-04-02T04:54:45.439Z,97.77
2018-04-02T04:55:45.362Z,97.67
2018-04-02T04:56:45.343Z,97.86
2018-04-02T04:57:45.323Z,97.77
2018-04-02T04:58:45.295Z,97.49
2018-04-02T04:59:45.272Z,97.67
2018-04-02T05:00:45.304Z,97.77
2018-04-02T05:01:45.226Z,97.58
2018-04-02T05:02:45.204Z,97.77
2018-04-02T05:03:45.184Z,97.49
2018-04-02T05:04:45.163Z,97.49
2018-04-02T05:05:45.149Z,97.86
2018-04-02T05:06:45.116Z,97.77
2018-04-02T05:07:45.093Z,97.77
2018-04-02T05:08:45.076Z,97.96
2018-04-02T05:09:45.052Z,97.96
2018-04-02T05:10:45.022Z,97.86
2018-04-02T05:11:45.003Z,98.01
2018-04-02T05:12:44.986Z,98.29
2018-04-02T05:13:44.957Z,98.10
2018-04-02T05:14:44.932Z,97.91
2018-04-02T05:15:44.913Z,98.48
2018-04-02T05:16:44.891Z,98.48
2018-04-02T05:17:44.863Z,98.29
2018-04-02T05:18:44.842Z,98.10
2018-04-02T05:19:44.824Z,98.01
2018-04-02T05:20:44.798Z,97.34
2018-04-02T05:21:44.775Z,97.63
2018-04-02T05:22:44.797Z,97.91
2018-04-02T05:23:44.728Z,97.72
2018-04-02T05:24:44.713Z,97.82
2018-04-02T05:25:44.695Z,97.72
2018-04-02T05:26:44.665Z,97.16
2018-04-02T05:27:44.640Z,97.63
2018-04-02T05:28:44.622Z,97.16
2018-04-02T05:29:44.596Z,97.63
2018-04-02T05:30:44.571Z,97.06
2018-04-02T05:31:44.553Z,97.25
2018-04-02T05:32:44.530Z,97.34
2018-04-02T05:33:44.506Z,97.34
2018-04-02T05:34:44.484Z,97.82
2018-04-02T05:35:44.462Z,97.25
2018-04-02T05:36:44.437Z,96.78
2018-04-02T05:37:44.419Z,96.21
2018-04-02T05:38:44.393Z,96.40
2018-04-02T05:39:44.443Z,96.31
2018-04-02T05:40:44.347Z,96.40
2018-04-02T05:41:44.324Z,96.21
2018-04-02T05:42:44.306Z,96.50
2018-04-02T05:43:44.287Z,96.69
2018-04-02T05:44:44.260Z,96.12
2018-04-02T05:45:44.240Z,96.12
2018-04-02T05:46:44.213Z,95.93
2018-04-02T05:47:44.191Z,96.12
2018-04-02T05:48:44.176Z,96.69
2018-04-02T05:49:44.148Z,96.69
2018-04-02T05:50:44.119Z,96.02
2018-04-02T05:51:44.100Z,95.45
2018-04-02T05:52:44.081Z,95.64
2018-04-02T05:53:44.063Z,95.36
2018-04-02T05:54:44.032Z,95.64
2018-04-02T05:55:44.014Z,94.70
2018-04-02T05:56:43.991Z,95.07
2018-04-02T05:57:43.967Z,95.26
2018-04-02T05:58:43.953Z,95.26
2018-04-02T05:59:43.945Z,95.55
2018-04-02T06:00:43.901Z,94.70
2018-04-02T06:01:43.880Z,94.60
2018-04-02T06:02:43.858Z,95.45
2018-04-02T06:03:43.832Z,95.07
2018-04-02T06:04:43.815Z,95.17
2018-04-02T06:05:43.794Z,95.59
2018-04-02T06:06:43.768Z,95.26
2018-04-02T06:07:43.744Z,94.60
2018-04-02T06:08:43.721Z,94.79
2018-04-02T06:09:43.703Z,95.21
2018-04-02T06:10:43.678Z,94.84
2018-04-02T06:11:43.657Z,95.03
2018-04-02T06:12:43.632Z,94.74
2018-04-02T06:13:43.610Z,95.40
2018-04-02T06:14:43.593Z,95.12
2018-04-02T06:15:43.566Z,95.31
2018-04-02T06:16:43.602Z,95.21
2018-04-02T06:17:43.523Z,94.74
2018-04-02T06:18:43.499Z,94.27
2018-04-02T06:19:43.480Z,94.65
2018-04-02T06:20:43.457Z,95.21
2018-04-02T06:21:43.437Z,94.37
2018-04-02T06:22:43.418Z,94.37
2018-04-02T06:23:43.394Z,94.18
2018-04-02T06:24:43.463Z,94.37
2018-04-02T06:25:43.443Z,94.84
2018-04-02T06:26:43.321Z,94.65
2018-04-02T06:27:43.350Z,94.74
2018-04-02T06:28:43.494Z,94.93
2018-04-02T06:29:43.253Z,94.46
2018-04-02T06:30:43.434Z,94.27
2018-04-02T06:31:43.212Z,94.74
2018-04-02T06:32:43.185Z,93.70
2018-04-02T06:33:43.171Z,93.70
2018-04-02T06:34:43.152Z,94.37
2018-04-02T06:35:43.121Z,94.08
2018-04-02T06:36:43.102Z,93.89
2018-04-02T06:37:43.123Z,93.51
2018-04-02T06:38:43.059Z,93.51
2018-04-02T06:39:43.043Z,93.04
2018-04-02T06:40:43.024Z,93.13
2018-04-02T06:41:43.140Z,93.13
2018-04-02T06:42:42.972Z,92.57
2018-04-02T06:43:43.454Z,92.94
2018-04-02T06:44:42.932Z,92.47
2018-04-02T06:45:42.912Z,92.57
2018-04-02T06:46:42.885Z,92.76
2018-04-02T06:47:42.917Z,92.57
2018-04-02T06:48:42.843Z,92.61
2018-04-02T06:49:42.823Z,92.57
2018-04-02T06:50:42.803Z,92.57
2018-04-02T06:51:42.782Z,93.08
2018-04-02T06:52:42.755Z,92.52
2018-04-02T06:53:42.734Z,92.24
2018-04-02T06:54:42.712Z,91.29
2018-04-02T06:55:42.690Z,91.38
2018-04-02T06:56:42.667Z,91.67
2018-04-02T06:57:42.652Z,91.57
2018-04-02T06:58:42.630Z,91.38
2018-04-02T06:59:42.607Z,91.57
2018-04-02T07:00:42.589Z,91.67
2018-04-02T07:01:42.564Z,91.67
2018-04-02T07:02:42.539Z,90.72
2018-04-02T07:03:42.518Z,90.25
2018-04-02T07:04:42.506Z,90.72
2018-04-02T07:05:42.476Z,90.91
2018-04-02T07:06:42.454Z,91.10
2018-04-02T07:07:42.433Z,90.67
2018-04-02T07:08:42.410Z,90.48
2018-04-02T07:09:42.390Z,89.34
2018-04-02T07:10:42.368Z,89.53
2018-04-02T07:11:42.352Z,88.78
2018-04-02T07:12:42.326Z,88.96
2018-04-02T07:13:42.304Z,88.40
2018-04-02T07:14:42.283Z,88.40
2018-04-02T07:15:42.263Z,88.78
2018-04-02T07:16:42.239Z,88.40
2018-04-02T07:17:42.223Z,88.11
2018-04-02T07:18:42.200Z,88.11
2018-04-02T07:19:42.184Z,88.21
2018-04-02T07:20:42.159Z,88.02
2018-04-02T07:21:42.138Z,88.02
2018-04-02T07:22:42.113Z,86.79
2018-04-02T07:23:42.258Z,86.12
2018-04-02T07:24:42.077Z,86.31
2018-04-02T07:25:42.129Z,86.98
2018-04-02T07:26:42.034Z,87.64
2018-04-02T07:27:42.087Z,87.02
2018-04-02T07:28:41.993Z,86.16
2018-04-02T07:29:41.976Z,85.03
2018-04-02T07:30:41.950Z,85.03
2018-04-02T07:31:41.925Z,84.36
2018-04-02T07:32:41.906Z,82.51
2018-04-02T07:33:41.890Z,81.94
2018-04-02T07:34:41.868Z,81.32
2018-04-02T07:35:41.843Z,79.94
2018-04-02T07:36:41.822Z,78.80
2018-04-02T07:37:41.804Z,78.09
2018-04-02T07:38:41.784Z,77.84
2018-04-02T07:39:41.778Z,76.61
2018-04-02T07:40:41.760Z,75.42
2018-04-02T07:41:41.728Z,74.33
2018-04-02T07:42:41.706Z,74.90
2018-04-02T07:43:41.786Z,75.13
2018-04-02T07:44:41.676Z,74.85
2018-04-02T07:45:41.664Z,74.51
2018-04-02T07:46:41.632Z,74.60
2018-04-02T07:47:41.623Z,73.36
2018-04-02T07:48:41.600Z,73.18
2018-04-02T07:49:41.580Z,72.38
2018-04-02T07:50:41.579Z,71.08
2018-04-02T07:51:41.554Z,71.66
2018-04-02T07:52:41.537Z,71.02
2018-04-02T07:53:41.526Z,70.17
2018-04-02T07:54:41.503Z,69.82
2018-04-02T07:55:41.488Z,68.68
2018-04-02T07:56:41.472Z,67.63
2018-04-02T07:57:41.457Z,68.21
2018-04-02T07:58:41.442Z,66.97
2018-04-02T07:59:41.432Z,65.92
2018-04-02T08:00:41.418Z,65.48
2018-04-02T08:01:41.447Z,66.46
2018-04-02T08:02:41.396Z,64.75
2018-04-02T08:03:41.512Z,64.56
2018-04-02T08:04:41.360Z,64.08
2018-04-02T08:05:41.353Z,63.13
2018-04-02T08:06:41.337Z,62.78
2018-04-02T08:07:41.473Z,62.21
2018-04-02T08:08:41.390Z,62.02
2018-04-02T08:09:41.306Z,61.10
2018-04-02T08:10:41.294Z,60.33
2018-04-02T08:11:41.282Z,60.05
2018-04-02T08:12:41.273Z,59.51
2018-04-02T08:13:41.267Z,60.27
2018-04-02T08:14:41.258Z,57.60
2018-04-02T08:15:41.245Z,57.92
2018-04-02T08:16:41.242Z,57.15
2018-04-02T08:17:41.236Z,57.09
2018-04-02T08:18:41.223Z,56.80
2018-04-02T08:19:41.212Z,55.36
2018-04-02T08:20:41.204Z,55.84
2018-04-02T08:21:41.201Z,55.18
2018-04-02T08:22:41.191Z,53.45
2018-04-02T08:23:41.188Z,53.84
2018-04-02T08:24:41.181Z,54.25
2018-04-02T08:25:41.174Z,53.99
2018-04-02T08:26:41.162Z,54.18
2018-04-02T08:27:41.159Z,53.03
2018-04-02T08:28:41.154Z,52.36
2018-04-02T08:29:41.159Z,51.24
2018-04-02T08:30:41.144Z,51.05
2018-04-02T08:31:41.145Z,49.80
2018-04-02T08:32:41.158Z,51.43
2018-04-02T08:33:41.131Z,51.07
2018-04-02T08:34:41.124Z,51.65
2018-04-02T08:35:41.118Z,48.11
2018-04-02T08:36:41.121Z,48.21
2018-04-02T08:37:41.114Z,47.32
2018-04-02T08:38:41.117Z,49.14
2018-04-02T08:39:41.107Z,48.75
2018-04-02T08:40:41.104Z,48.18
2018-04-02T08:41:41.099Z,48.38
2018-04-02T08:42:41.099Z,46.75
2018-04-02T08:43:41.091Z,47.71
2018-04-02T08:44:41.095Z,49.04
2018-04-02T08:45:41.091Z,47.80
2018-04-02T08:46:41.084Z,48.39
2018-04-02T08:47:41.079Z,47.25
2018-04-02T08:48:41.076Z,46.30
2018-04-02T08:49:41.083Z,45.43
2018-04-02T08:50:41.069Z,45.22
2018-04-02T08:51:41.073Z,47.61
2018-04-02T08:52:41.068Z,48.30
2018-04-02T08:53:41.070Z,48.97
2018-04-02T08:54:41.070Z,47.34
2018-04-02T08:55:41.061Z,48.71
2018-04-02T08:56:41.055Z,46.89
2018-04-02T08:57:41.057Z,44.50
2018-04-02T08:58:41.055Z,44.88
2018-04-02T08:59:41.055Z,45.29
2018-04-02T09:00:41.065Z,43.95
2018-04-02T09:01:41.047Z,43.44
2018-04-02T09:02:41.045Z,43.73
2018-04-02T09:03:41.046Z,44.12
2018-04-02T09:04:41.039Z,42.90
2018-04-02T09:05:41.039Z,42.90
2018-04-02T09:06:41.038Z,43.59
2018-04-02T09:07:41.040Z,42.36
2018-04-02T09:08:41.045Z,41.69
2018-04-02T09:09:41.050Z,41.96
2018-04-02T09:10:41.033Z,41.11
2018-04-02T09:11:41.032Z,41.00
2018-04-02T09:12:41.027Z,41.31
2018-04-02T09:13:41.036Z,40.35
2018-04-02T09:14:41.024Z,40.90
2018-04-02T09:15:41.025Z,41.46
2018-04-02T09:16:41.053Z,42.05
2018-04-02T09:17:41.098Z,42.44
2018-04-02T09:18:41.079Z,42.99
2018-04-02T09:19:41.029Z,43.47
2018-04-02T09:20:41.017Z,41.86
2018-04-02T09:21:41.018Z,40.78
2018-04-02T09:22:41.015Z,42.44
2018-04-02T09:23:41.014Z,41.60
2018-04-02T09:24:41.015Z,41.83
2018-04-02T09:25:41.011Z,38.85
2018-04-02T09:26:41.011Z,38.78
2018-04-02T09:27:41.012Z,37.82
2018-04-02T09:28:41.017Z,40.17
2018-04-02T09:29:41.013Z,39.85
2018-04-02T09:30:41.003Z,41.67
2018-04-02T09:31:41.004Z,42.82
2018-04-02T09:32:41.004Z,42.40
2018-04-02T09:33:41.012Z,42.85
2018-04-02T09:34:40.996Z,43.59
2018-04-02T09:35:40.997Z,43.76
2018-04-02T09:36:40.994Z,43.76
2018-04-02T09:37:40.993Z,44.91
2018-04-02T09:38:40.990Z,44.26
2018-04-02T09:39:40.993Z,45.17
2018-04-02T09:40:40.993Z,41.27
2018-04-02T09:41:40.983Z,38.70
2018-04-02T09:42:41.031Z,39.87
2018-04-02T09:43:40.982Z,39.89
2018-04-02T09:44:40.975Z,39.47
2018-04-02T09:45:40.975Z,41.15
2018-04-02T09:46:40.968Z,41.34
2018-04-02T09:47:40.971Z,40.38
2018-04-02T09:48:40.963Z,41.34
2018-04-02T09:49:40.959Z,41.09
2018-04-02T09:50:40.956Z,40.06
2018-04-02T09:51:40.953Z,39.98
2018-04-02T09:52:40.950Z,37.99
2018-04-02T09:53:40.953Z,36.66
2018-04-02T09:54:40.947Z,35.22
2018-04-02T09:55:40.945Z,35.27
2018-04-02T09:56:40.945Z,35.75
2018-04-02T09:57:40.942Z,37.30
2018-04-02T09:58:40.942Z,36.86
2018-04-02T09:59:40.948Z,37.74
2018-04-02T10:00:40.939Z,35.93
2018-04-02T10:01:40.935Z,34.41
2018-04-02T10:02:40.932Z,33.56
2018-04-02T10:03:40.945Z,31.64
2018-04-02T10:04:41.120Z,29.80
2018-04-02T10:05:40.932Z,31.06
2018-04-02T10:06:40.932Z,29.52
2018-04-02T10:07:40.932Z,30.49
2018-04-02T10:08:40.932Z,28.47
2018-04-02T10:09:40.932Z,29.25
2018-04-02T10:10:40.933Z,30.22
2018-04-02T10:11:40.929Z,27.82
2018-04-02T10:12:40.936Z,24.84
2018-04-02T10:13:40.936Z,25.31
2018-04-02T10:14:40.933Z,23.96
2018-04-02T10:15:40.935Z,25.59
2018-04-02T10:16:40.935Z,26.37
2018-04-02T10:17:40.935Z,25.12
2018-04-02T10:18:40.935Z,26.20
2018-04-02T10:19:40.945Z,26.21
2018-04-02T10:20:41.006Z,26.21
2018-04-02T10:21:40.945Z,25.07
2018-04-02T10:22:40.942Z,24.39
2018-04-02T10:23:40.943Z,22.56
2018-04-02T10:24:40.949Z,22.44
2018-04-02T10:25:40.947Z,26.21
2018-04-02T10:26:40.951Z,23.51
2018-04-02T10:27:40.957Z,23.60
2018-04-02T10:28:40.952Z,23.88
2018-04-02T10:29:41.006Z,23.78
2018-04-02T10:30:40.966Z,25.33
2018-04-02T10:31:40.960Z,24.37
2018-04-02T10:32:40.968Z,24.18
2018-04-02T10:33:40.961Z,23.61
2018-04-02T10:34:40.964Z,24.09
2018-04-02T10:35:40.965Z,23.13
2018-04-02T10:36:40.971Z,23.62
2018-04-02T10:37:40.971Z,23.54
2018-04-02T10:38:40.974Z,23.72
2018-04-02T10:39:40.978Z,23.05
2018-04-02T10:40:40.986Z,20.62
2018-04-02T10:41:40.986Z,23.41
2018-04-02T10:42:40.987Z,23.51
2018-04-02T10:43:40.987Z,22.93
2018-04-02T10:44:40.993Z,23.52
2018-04-02T10:45:40.996Z,21.79
2018-04-02T10:46:40.995Z,22.45
2018-04-02T10:47:41.007Z,23.13
2018-04-02T10:48:41.032Z,23.13
2018-04-02T10:49:41.029Z,22.63
2018-04-02T10:50:41.009Z,23.71
2018-04-02T10:51:41.007Z,24.09
2018-04-02T10:52:41.019Z,24.01
2018-04-02T10:53:41.019Z,23.91
2018-04-02T10:54:41.014Z,24.30
2018-04-02T10:55:41.024Z,23.15
2018-04-02T10:56:41.019Z,23.63
2018-04-02T10:57:41.023Z,23.54
2018-04-02T10:58:41.029Z,23.55
2018-04-02T10:59:41.103Z,24.51
2018-04-02T11:00:41.033Z,23.07
2018-04-02T11:01:41.040Z,22.30
2018-04-02T11:02:41.041Z,23.17
2018-04-02T11:03:41.040Z,21.92
2018-04-02T11:04:41.047Z,23.38
2018-04-02T11:05:41.087Z,20.09
2018-04-02T11:06:41.051Z,21.13
2018-04-02T11:07:41.055Z,20.92
2018-04-02T11:08:41.059Z,21.97
2018-04-02T11:09:41.058Z,24.97
2018-04-02T11:10:41.065Z,23.72
2018-04-02T11:11:41.067Z,23.65
2018-04-02T11:12:41.073Z,23.28
2018-04-02T11:13:41.077Z,21.92
2018-04-02T11:14:41.075Z,21.91
2018-04-02T11:15:41.080Z,21.22
2018-04-02T11:16:41.080Z,22.34
2018-04-02T11:17:41.092Z,24.92
2018-04-02T11:18:41.098Z,23.94
2018-04-02T11:19:41.086Z,25.59
2018-04-02T11:20:41.094Z,25.11
2018-04-02T11:21:41.092Z,26.10
2018-04-02T11:22:41.094Z,23.98
2018-04-02T11:23:41.144Z,23.50
2018-04-02T11:24:41.105Z,23.79
2018-04-02T11:25:41.102Z,23.99
2018-04-02T11:26:41.108Z,22.93
2018-04-02T11:27:41.109Z,23.72
2018-04-02T11:28:41.109Z,23.60
2018-04-02T11:29:41.111Z,23.50
2018-04-02T11:30:41.115Z,23.60
2018-04-02T11:31:41.114Z,23.50
2018-04-02T11:32:41.120Z,23.02
2018-04-02T11:33:41.122Z,23.03
2018-04-02T11:34:41.119Z,23.22
2018-04-02T11:35:41.128Z,21.88
2018-04-02T11:36:41.127Z,21.58
2018-04-02T11:37:41.130Z,22.05
2018-04-02T11:38:41.128Z,22.36
2018-04-02T11:39:41.140Z,22.74
2018-04-02T11:40:41.140Z,21.48
2018-04-02T11:41:41.137Z,21.10
2018-04-02T11:42:41.137Z,22.26
2018-04-02T11:43:41.148Z,21.88
2018-04-02T11:44:41.146Z,21.01
2018-04-02T11:45:41.147Z,21.12
2018-04-02T11:46:41.148Z,21.03
2018-04-02T11:47:41.153Z,20.83
2018-04-02T11:48:41.154Z,20.56
2018-04-02T11:49:41.204Z,19.58
2018-04-02T11:50:41.159Z,19.37
2018-04-02T11:51:41.168Z,19.56
2018-04-02T11:52:41.162Z,21.86
2018-04-02T11:53:41.170Z,21.97
2018-04-02T11:54:41.172Z,23.62
2018-04-02T11:55:41.172Z,21.61
2018-04-02T11:56:41.174Z,20.84
2018-04-02T11:57:41.195Z,21.04
2018-04-02T11:58:41.182Z,21.04
2018-04-02T11:59:41.181Z,20.64
2018-04-02T12:00:41.184Z,19.77
2018-04-02T12:01:41.193Z,19.29
2018-04-02T12:02:41.192Z,21.10
2018-04-02T12:03:41.194Z,21.85
2018-04-02T12:04:41.204Z,21.75
2018-04-02T12:05:41.199Z,23.20
2018-04-02T12:06:41.205Z,23.02
2018-04-02T12:07:41.211Z,21.28
2018-04-02T12:08:41.208Z,22.36
2018-04-02T12:09:41.219Z,22.16
2018-04-02T12:10:41.247Z,21.98
2018-04-02T12:11:41.211Z,21.22
2018-04-02T12:12:41.215Z,21.01
2018-04-02T12:13:41.216Z,19.46
2018-04-02T12:14:41.218Z,20.70
2018-04-02T12:15:41.227Z,21.68
2018-04-02T12:16:41.231Z,22.94
2018-04-02T12:17:41.226Z,21.22
2018-04-02T12:18:41.230Z,21.71
2018-04-02T12:19:41.234Z,21.23
2018-04-02T12:20:41.232Z,20.37
2018-04-02T12:21:41.236Z,18.91
2018-04-02T12:22:41.255Z,18.42
2018-04-02T12:23:41.245Z,19.67
2018-04-02T12:24:41.244Z,18.80
2018-04-02T12:25:41.248Z,19.65
2018-04-02T12:26:41.252Z,20.33
2018-04-02T12:27:41.252Z,19.56
2018-04-02T12:28:41.252Z,20.23
2018-04-02T12:29:41.254Z,21.96
2018-04-02T12:30:41.260Z,22.93
2018-04-02T12:31:41.260Z,22.36
2018-04-02T12:32:41.264Z,21.59
2018-04-02T12:33:41.269Z,20.63
2018-04-02T12:34:41.269Z,19.95
2018-04-02T12:35:41.274Z,21.70
2018-04-02T12:36:41.275Z,20.06
2018-04-02T12:37:41.288Z,20.26
2018-04-02T12:38:41.279Z,20.07
2018-04-02T12:39:41.280Z,20.16
2018-04-02T12:40:41.292Z,20.16
2018-04-02T12:41:41.289Z,20.46
2018-04-02T12:42:41.287Z,19.79
2018-04-02T12:43:41.293Z,19.80
2018-04-02T12:44:41.295Z,18.82
2018-04-02T12:45:41.296Z,18.91
2018-04-02T12:46:41.304Z,18.23
2018-04-02T12:47:41.307Z,19.29
2018-04-02T12:48:41.315Z,19.49
2018-04-02T12:49:41.312Z,19.30
2018-04-02T12:50:41.312Z,19.50
2018-04-02T12:51:41.313Z,18.92
2018-04-02T12:52:41.315Z,19.31